createdAt,value
2018-02-12T00:01:07.356Z,70.07
2018-02-12T00:03:36.523Z,70.35
2018-02-12T00:06:06.012Z,70.57
2018-02-12T00:08:37.336Z,70.82
2018-02-12T00:11:08.247Z,70.82
2018-02-12T00:13:37.978Z,71.17
2018-02-12T00:16:08.900Z,71.09
2018-02-12T00:18:39.520Z,70.67
2018-02-12T00:21:12.787Z,70.72
2018-02-12T00:23:42.599Z,71.04
2018-02-12T00:26:12.095Z,71.39
2018-02-12T00:28:43.549Z,71.40
2018-02-12T00:31:14.031Z,71.28
2018-02-12T00:33:45.009Z,71.23
2018-02-12T00:36:15.479Z,71.11
2018-02-12T00:38:46.044Z,70.93
2018-02-12T00:41:16.538Z,71.00
2018-02-12T00:43:46.374Z,71.14
2018-02-12T00:46:16.870Z,71.01
2018-02-12T00:48:47.959Z,70.94
2018-02-12T00:51:18.871Z,71.03
2018-02-12T00:53:49.755Z,70.89
2018-02-12T00:56:24.023Z,70.92
2018-02-12T00:58:53.875Z,71.00
2018-02-12T01:01:24.570Z,70.98
2018-02-12T01:03:55.519Z,70.92
2018-02-12T01:06:26.419Z,70.88
2018-02-12T01:08:57.505Z,70.92
2018-02-12T01:11:28.023Z,71.00
2018-02-12T01:13:58.648Z,71.21
2018-02-12T01:16:29.527Z,71.46
2018-02-12T01:19:00.486Z,71.33
2018-02-12T01:21:31.480Z,71.68
2018-02-12T01:24:05.177Z,71.84
2018-02-12T01:26:34.255Z,72.13
2018-02-12T01:29:05.556Z,72.13
2018-02-12T01:31:36.067Z,72.10
2018-02-12T01:34:06.596Z,72.49
2018-02-12T01:36:37.083Z,72.58
2018-02-12T01:39:07.601Z,72.15
2018-02-12T01:41:39.185Z,71.67
2018-02-12T01:44:09.807Z,72.46
2018-02-12T01:46:40.500Z,71.51
2018-02-12T01:49:11.450Z,71.64
2018-02-12T01:51:42.383Z,72.04
2018-02-12T01:54:12.396Z,72.15
2018-02-12T01:56:43.042Z,71.73
2018-02-12T01:59:13.764Z,72.44
2018-02-12T02:01:45.195Z,72.49
2018-02-12T02:04:16.636Z,72.44
2018-02-12T02:06:47.530Z,72.63
2018-02-12T02:09:20.156Z,72.32
2018-02-12T02:11:49.841Z,72.71
2018-02-12T02:14:20.375Z,72.90
2018-02-12T02:16:50.871Z,72.75
2018-02-12T02:19:21.827Z,73.31
2018-02-12T02:21:52.430Z,73.14
2018-02-12T02:24:23.793Z,73.39
2018-02-12T02:26:54.539Z,73.33
2018-02-12T02:29:25.105Z,73.25
2018-02-12T02:31:55.680Z,73.58
2018-02-12T02:34:26.089Z,73.12
2018-02-12T02:36:56.340Z,73.72
2018-02-12T02:39:27.388Z,73.49
2018-02-12T02:41:58.235Z,73.69
2018-02-12T02:44:29.593Z,73.71
2018-02-12T02:47:00.963Z,73.65
2018-02-12T02:49:31.575Z,73.97
2018-02-12T02:52:02.463Z,73.59
2018-02-12T02:54:33.367Z,73.36
2018-02-12T02:57:05.001Z,73.38
2018-02-12T02:59:35.714Z,73.38
2018-02-12T03:02:06.044Z,73.99
2018-02-12T03:04:41.352Z,73.86
2018-02-12T03:07:10.600Z,73.90
2018-02-12T03:09:39.724Z,74.04
2018-02-12T03:12:08.915Z,74.30
2018-02-12T03:14:39.934Z,74.27
2018-02-12T03:17:10.143Z,74.48
2018-02-12T03:19:40.972Z,74.56
2018-02-12T03:22:11.594Z,74.86
2018-02-12T03:24:43.142Z,74.59
2018-02-12T03:27:13.603Z,74.71
2018-02-12T03:29:43.860Z,74.72
2018-02-12T03:32:14.357Z,74.96
2018-02-12T03:34:45.194Z,74.91
2018-02-12T03:37:16.620Z,74.80
2018-02-12T03:39:47.892Z,75.15
2018-02-12T03:42:17.922Z,75.31
2018-02-12T03:44:49.575Z,75.43
2018-02-12T03:47:25.372Z,75.86
2018-02-12T03:49:54.554Z,75.81
2018-02-12T03:52:23.759Z,75.84
2018-02-12T03:54:54.143Z,75.93
2018-02-12T03:57:25.340Z,76.16
2018-02-12T03:59:54.959Z,76.41
2018-02-12T04:02:25.607Z,77.05
2018-02-12T04:04:55.480Z,76.76
2018-02-12T04:07:26.023Z,77.00
2018-02-12T04:09:57.759Z,77.00
2018-02-12T04:12:29.198Z,77.12
2018-02-12T04:14:59.672Z,77.12
2018-02-12T04:17:30.532Z,77.14
2018-02-12T04:20:01.087Z,77.12
2018-02-12T04:22:31.784Z,78.41
2018-02-12T04:25:03.339Z,78.60
2018-02-12T04:27:33.942Z,78.42
2018-02-12T04:30:04.214Z,78.58
2018-02-12T04:32:35.767Z,79.00
2018-02-12T04:35:06.229Z,80.67
2018-02-12T04:37:35.956Z,80.72
2018-02-12T04:40:06.895Z,80.64
2018-02-12T04:42:40.640Z,80.81
2018-02-12T04:45:09.824Z,80.35
2018-02-12T04:47:39.209Z,80.83
2018-02-12T04:50:10.215Z,80.59
2018-02-12T04:52:40.814Z,79.92
2018-02-12T04:55:11.546Z,79.50
2018-02-12T04:57:42.401Z,79.56
2018-02-12T05:00:14.274Z,79.22
2018-02-12T05:02:45.063Z,79.47
2018-02-12T05:05:15.554Z,79.93
2018-02-12T05:07:46.526Z,79.74
2018-02-12T05:10:18.303Z,79.22
2018-02-12T05:12:48.987Z,79.16
2018-02-12T05:15:18.238Z,78.90
2018-02-12T05:17:49.164Z,78.89
2018-02-12T05:20:19.582Z,78.78
2018-02-12T05:22:50.212Z,78.65
2018-02-12T05:25:20.819Z,78.45
2018-02-12T05:27:52.545Z,78.56
2018-02-12T05:30:24.821Z,78.57
2018-02-12T05:32:54.206Z,78.32
2018-02-12T05:35:24.379Z,78.80
2018-02-12T05:37:56.463Z,78.60
2018-02-12T05:40:28.117Z,78.43
2018-02-12T05:42:57.812Z,78.31
2018-02-12T05:45:29.489Z,78.08
2018-02-12T05:48:00.054Z,78.03
2018-02-12T05:50:30.481Z,78.02
2018-02-12T05:53:01.864Z,77.98
2018-02-12T05:55:32.907Z,78.02
2018-02-12T05:58:04.284Z,78.19
2018-02-12T06:00:33.840Z,78.19
2018-02-12T06:03:04.603Z,78.37
2018-02-12T06:05:35.330Z,78.36
2018-02-12T06:08:06.264Z,77.83
2018-02-12T06:10:37.596Z,78.67
2018-02-12T06:13:09.198Z,78.98
2018-02-12T06:15:39.829Z,78.83
2018-02-12T06:18:09.153Z,78.64
2018-02-12T06:20:39.812Z,78.62
2018-02-12T06:23:10.729Z,78.49
2018-02-12T06:25:42.497Z,78.33
2018-02-12T06:28:12.999Z,78.10
2018-02-12T06:30:43.989Z,77.77
2018-02-12T06:33:14.409Z,77.60
2018-02-12T06:35:45.204Z,77.35
2018-02-12T06:38:15.794Z,77.95
2018-02-12T06:40:46.785Z,78.03
2018-02-12T06:43:18.576Z,77.97
2018-02-12T06:45:49.180Z,77.82
2018-02-12T06:48:19.682Z,77.87
2018-02-12T06:50:51.142Z,77.81
2018-02-12T06:53:21.796Z,77.60
2018-02-12T06:55:52.153Z,77.75
2018-02-12T06:58:22.965Z,77.61
2018-02-12T07:00:53.891Z,78.02
2018-02-12T07:03:25.386Z,77.68
2018-02-12T07:05:56.729Z,77.55
2018-02-12T07:08:27.433Z,77.56
2018-02-12T07:10:58.016Z,77.44
2018-02-12T07:16:20.213Z,77.39
2018-02-12T07:18:49.040Z,77.32
2018-02-12T07:21:18.191Z,77.23
2018-02-12T07:23:48.227Z,77.38
2018-02-12T07:26:17.363Z,77.29
2018-02-12T07:28:46.609Z,77.15
2018-02-12T07:31:16.000Z,77.13
2018-02-12T07:33:46.351Z,77.02
2018-02-12T07:36:16.579Z,76.90
2018-02-12T07:38:46.643Z,76.70
2018-02-12T07:41:15.888Z,77.22
2018-02-12T07:43:45.077Z,76.90
2018-02-12T07:46:15.803Z,76.45
2018-02-12T07:48:45.147Z,76.72
2018-02-12T07:51:14.366Z,76.44
2018-02-12T07:53:44.952Z,76.29
2018-02-12T07:56:15.456Z,76.16
2018-02-12T07:58:46.388Z,76.29
2018-02-12T08:01:18.353Z,76.15
2018-02-12T08:03:51.192Z,74.79
2018-02-12T08:06:20.291Z,74.59
2018-02-12T08:08:50.271Z,74.24
2018-02-12T08:11:20.591Z,73.81
2018-02-12T08:13:51.385Z,73.59
2018-02-12T08:16:22.305Z,73.20
2018-02-12T08:18:53.127Z,72.58
2018-02-12T08:21:24.762Z,72.47
2018-02-12T08:23:56.503Z,79.13
2018-02-12T08:26:27.954Z,78.15
2018-02-12T08:28:57.835Z,75.93
2018-02-12T08:31:28.517Z,70.76
2018-02-12T08:33:59.281Z,68.13
2018-02-12T08:36:30.123Z,67.64
2018-02-12T08:39:08.448Z,66.74
2018-02-12T08:41:37.603Z,65.41
2018-02-12T08:44:06.814Z,64.69
2018-02-12T08:46:35.957Z,61.88
2018-02-12T08:49:06.199Z,62.94
2018-02-12T08:51:36.508Z,61.43
2018-02-12T08:54:07.425Z,61.95
2018-02-12T08:56:37.916Z,58.92
2018-02-12T08:59:09.288Z,57.53
2018-02-12T09:01:39.716Z,58.85
2018-02-12T09:04:10.378Z,60.27
2018-02-12T09:06:42.651Z,61.58
2018-02-12T09:09:13.231Z,61.04
2018-02-12T09:11:43.697Z,62.34
2018-02-12T09:14:14.072Z,62.00
2018-02-12T09:16:44.460Z,62.10
2018-02-12T09:19:15.324Z,62.44
2018-02-12T09:21:45.895Z,62.63
2018-02-12T09:24:16.554Z,62.68
2018-02-12T09:26:47.798Z,62.11
2018-02-12T09:29:18.439Z,62.12
2018-02-12T09:31:49.317Z,61.95
2018-02-12T09:34:20.318Z,62.53
2018-02-12T09:36:51.211Z,62.58
2018-02-12T09:39:21.655Z,61.82
2018-02-12T09:41:52.369Z,61.45
2018-02-12T09:44:23.304Z,61.70
2018-02-12T09:46:54.117Z,61.50
2018-02-12T09:49:25.711Z,61.50
2018-02-12T09:51:58.001Z,61.25
2018-02-12T09:54:27.795Z,61.52
2018-02-12T09:56:58.328Z,61.25
2018-02-12T09:59:29.240Z,60.37
2018-02-12T10:02:00.483Z,60.61
2018-02-12T10:04:31.335Z,60.61
2018-02-12T10:07:01.788Z,61.30
2018-02-12T10:09:32.399Z,59.93
2018-02-12T10:12:03.183Z,59.20
2018-02-12T10:14:34.519Z,59.37
2018-02-12T10:17:05.199Z,59.75
2018-02-12T10:19:36.184Z,59.81
2018-02-12T10:22:07.120Z,59.35
2018-02-12T10:24:37.555Z,58.82
2018-02-12T10:27:08.362Z,58.29
2018-02-12T10:29:39.246Z,59.14
2018-02-12T10:32:10.144Z,58.78
2018-02-12T10:34:41.582Z,58.59
2018-02-12T10:37:12.109Z,57.57
2018-02-12T10:39:42.519Z,57.88
2018-02-12T10:42:13.373Z,58.64
2018-02-12T10:44:44.007Z,57.52
2018-02-12T10:47:14.775Z,57.10
2018-02-12T10:49:45.217Z,56.76
2018-02-12T10:52:15.652Z,56.31
2018-02-12T10:54:46.596Z,56.32
2018-02-12T10:57:17.484Z,55.25
2018-02-12T10:59:48.366Z,55.99
2018-02-12T11:02:18.897Z,56.21
2018-02-12T11:04:49.480Z,56.27
2018-02-12T11:07:19.911Z,55.94
2018-02-12T11:09:50.560Z,55.16
2018-02-12T11:12:21.407Z,54.90
2018-02-12T11:14:52.272Z,55.10
2018-02-12T11:17:23.067Z,54.63
2018-02-12T11:19:54.464Z,54.60
2018-02-12T11:22:25.238Z,54.38
2018-02-12T11:24:56.280Z,53.96
2018-02-12T11:27:27.115Z,54.17
2018-02-12T11:29:58.412Z,53.73
2018-02-12T11:32:29.299Z,54.03
2018-02-12T11:35:00.200Z,54.17
2018-02-12T11:37:31.557Z,54.41
2018-02-12T11:40:02.490Z,54.66
2018-02-12T11:42:33.273Z,54.60
2018-02-12T11:45:04.576Z,55.21
2018-02-12T11:47:35.386Z,55.01
2018-02-12T11:50:06.279Z,54.47
2018-02-12T11:52:37.021Z,52.94
2018-02-12T11:55:08.512Z,52.49
2018-02-12T11:57:39.574Z,51.72
2018-02-12T12:00:10.411Z,52.04
2018-02-12T12:02:41.178Z,52.81
2018-02-12T12:05:12.515Z,53.21
2018-02-12T12:07:43.315Z,53.89
2018-02-12T12:10:15.290Z,54.45
2018-02-12T12:12:45.810Z,54.57
2018-02-12T12:15:16.458Z,54.75
2018-02-12T12:17:47.394Z,55.20
2018-02-12T12:20:18.643Z,55.17
2018-02-12T12:22:49.004Z,55.28
2018-02-12T12:25:19.801Z,55.05
2018-02-12T12:27:50.395Z,54.67
2018-02-12T12:30:20.882Z,54.32
2018-02-12T12:32:51.398Z,54.41
2018-02-12T12:35:22.277Z,53.95
2018-02-12T12:37:52.687Z,53.57
2018-02-12T12:40:23.435Z,53.15
2018-02-12T12:42:54.216Z,52.88
2018-02-12T12:45:25.604Z,52.93
2018-02-12T12:47:56.319Z,51.64
2018-02-12T12:50:27.232Z,51.02
2018-02-12T12:52:58.215Z,50.50
2018-02-12T12:55:29.148Z,50.26
2018-02-12T12:58:00.523Z,50.33
2018-02-12T13:00:31.082Z,50.68
2018-02-12T13:03:01.487Z,49.95
2018-02-12T13:05:32.414Z,48.03
2018-02-12T13:08:04.112Z,48.81
2018-02-12T13:10:34.480Z,47.22
2018-02-12T13:13:04.954Z,47.16
2018-02-12T13:15:35.619Z,46.33
2018-02-12T13:18:06.311Z,47.42
2018-02-12T13:20:37.204Z,46.69
2018-02-12T13:23:07.563Z,46.57
2018-02-12T13:25:38.453Z,46.97
2018-02-12T13:28:09.240Z,46.26
2018-02-12T13:30:40.162Z,46.57
2018-02-12T13:33:11.001Z,47.18
2018-02-12T13:35:41.469Z,47.80
2018-02-12T13:38:12.394Z,48.51
2018-02-12T13:40:43.442Z,48.53
2018-02-12T13:43:14.244Z,48.74
2018-02-12T13:45:45.807Z,48.91
2018-02-12T13:48:16.356Z,48.55
2018-02-12T13:50:47.241Z,47.90
2018-02-12T13:56:03.541Z,48.92
2018-02-12T13:58:34.729Z,48.11
2018-02-12T14:01:03.982Z,49.11
2018-02-12T14:03:33.446Z,48.47
2018-02-12T14:06:02.555Z,46.50
2018-02-12T14:08:31.802Z,47.48
2018-02-12T14:11:00.963Z,46.50
2018-02-12T14:13:30.029Z,43.48
2018-02-12T14:15:59.459Z,44.41
2018-02-12T14:18:28.533Z,44.19
2018-02-12T14:20:59.032Z,45.41
2018-02-12T14:23:29.533Z,44.88
2018-02-12T14:26:00.344Z,46.57
2018-02-12T14:28:31.195Z,46.50
2018-02-12T14:31:02.083Z,47.09
2018-02-12T14:33:33.429Z,46.86
2018-02-12T14:36:04.045Z,48.53
2018-02-12T14:38:34.484Z,48.85
2018-02-12T14:41:05.356Z,49.10
2018-02-12T14:43:35.902Z,49.24
2018-02-12T14:46:06.667Z,49.30
2018-02-12T14:48:37.098Z,49.30
2018-02-12T14:51:07.485Z,49.26
2018-02-12T14:53:38.347Z,49.32
2018-02-12T14:56:08.898Z,49.54
2018-02-12T14:58:39.518Z,49.51
2018-02-12T15:01:10.372Z,48.56
2018-02-12T15:03:41.284Z,49.40
2018-02-12T15:06:12.122Z,49.42
2018-02-12T15:08:43.500Z,49.57
2018-02-12T15:11:14.331Z,49.68
2018-02-12T15:13:44.886Z,49.65
2018-02-12T15:16:15.555Z,49.90
2018-02-12T15:18:46.159Z,49.93
2018-02-12T15:21:17.003Z,49.62
2018-02-12T15:23:47.528Z,49.42
2018-02-12T15:26:18.372Z,49.23
2018-02-12T15:28:49.237Z,49.29
2018-02-12T15:31:20.542Z,49.47
2018-02-12T15:33:51.437Z,49.46
2018-02-12T15:36:22.305Z,49.53
2018-02-12T15:38:52.920Z,49.75
2018-02-12T15:41:23.456Z,49.16
2018-02-12T15:43:54.311Z,49.85
2018-02-12T15:46:25.100Z,50.34
2018-02-12T15:48:56.338Z,50.59
2018-02-12T15:51:26.776Z,50.52
2018-02-12T15:53:57.740Z,50.48
2018-02-12T15:56:28.531Z,50.51
2018-02-12T15:58:59.397Z,50.96
2018-02-12T16:01:30.199Z,51.38
2018-02-12T16:04:01.147Z,51.43
2018-02-12T16:06:32.449Z,51.56
2018-02-12T16:09:03.416Z,51.64
2018-02-12T16:11:34.229Z,51.82
2018-02-12T16:14:05.148Z,51.94
2018-02-12T16:16:36.392Z,52.16
2018-02-12T16:19:07.255Z,52.17
2018-02-12T16:21:37.536Z,52.30
2018-02-12T16:24:08.408Z,52.45
2018-02-12T16:26:38.854Z,52.62
2018-02-12T16:29:09.451Z,52.65
2018-02-12T16:32:05.034Z,52.85
2018-02-12T16:34:35.375Z,53.00
2018-02-12T16:37:04.383Z,53.11
2018-02-12T16:39:33.210Z,53.29
2018-02-12T16:42:02.350Z,53.51
2018-02-12T16:44:31.867Z,53.67
2018-02-12T16:47:01.091Z,53.81
2018-02-12T16:49:30.201Z,53.92
2018-02-12T16:51:59.631Z,54.11
2018-02-12T16:54:28.821Z,54.27
2018-02-12T16:56:58.094Z,54.28
2018-02-12T16:59:27.201Z,54.10
2018-02-12T17:01:56.662Z,54.21
2018-02-12T17:04:25.861Z,53.38
2018-02-12T17:06:55.056Z,53.28
2018-02-12T17:09:24.778Z,53.48
2018-02-12T17:11:55.446Z,53.59
2018-02-12T17:14:26.390Z,53.50
2018-02-12T17:16:57.323Z,53.89
2018-02-12T17:19:28.306Z,54.34
2018-02-12T17:21:59.190Z,54.60
2018-02-12T17:24:30.682Z,54.71
2018-02-12T17:27:01.622Z,55.11
2018-02-12T17:29:32.442Z,55.05
2018-02-12T17:32:03.366Z,55.75
2018-02-12T17:34:34.052Z,55.97
2018-02-12T17:37:04.537Z,56.46
2018-02-12T17:39:35.584Z,56.50
2018-02-12T17:42:06.434Z,56.67
2018-02-12T17:44:37.039Z,57.18
2018-02-12T17:47:07.549Z,57.41
2018-02-12T17:49:38.476Z,57.46
2018-02-12T17:52:09.361Z,57.55
2018-02-12T17:54:40.320Z,57.66
2018-02-12T17:57:11.242Z,57.79
2018-02-12T17:59:42.567Z,58.15
2018-02-12T18:02:13.511Z,58.36
2018-02-12T18:04:44.431Z,58.86
2018-02-12T18:07:15.302Z,59.22
2018-02-12T18:09:46.243Z,59.51
2018-02-12T18:12:17.167Z,59.84
2018-02-12T18:14:48.491Z,60.22
2018-02-12T18:17:19.370Z,60.35
2018-02-12T18:19:50.738Z,60.01
2018-02-12T18:22:21.396Z,59.55
2018-02-12T18:24:51.946Z,59.71
2018-02-12T18:27:22.518Z,59.92
2018-02-12T18:29:53.461Z,60.02
2018-02-12T18:32:24.361Z,60.12
2018-02-12T18:34:55.279Z,60.16
2018-02-12T18:37:26.130Z,60.52
2018-02-12T18:39:57.554Z,61.08
2018-02-12T18:42:27.992Z,61.53
2018-02-12T18:44:59.270Z,61.63
2018-02-12T18:47:30.146Z,61.82
2018-02-12T18:50:01.169Z,62.13
2018-02-12T18:52:32.051Z,61.79
2018-02-12T18:55:03.559Z,61.79
2018-02-12T18:57:34.254Z,62.06
2018-02-12T19:00:04.722Z,62.39
2018-02-12T19:02:35.479Z,62.39
2018-02-12T19:05:06.646Z,62.20
2018-02-12T19:07:37.093Z,62.33
2018-02-12T19:10:07.843Z,62.52
2018-02-12T19:12:38.720Z,62.67
2018-02-12T19:15:10.148Z,62.45
2018-02-12T19:17:40.784Z,62.34
2018-02-12T19:20:12.232Z,62.51
2018-02-12T19:22:42.910Z,62.66
2018-02-12T19:25:13.855Z,62.58
2018-02-12T19:27:44.665Z,62.58
2018-02-12T19:30:15.109Z,62.77
2018-02-12T19:32:45.759Z,62.54
2018-02-12T19:35:16.283Z,62.39
2018-02-12T19:37:46.877Z,62.72
2018-02-12T19:40:17.873Z,63.37
2018-02-12T19:42:48.701Z,63.23
2018-02-12T19:45:20.386Z,63.29
2018-02-12T19:47:50.563Z,63.54
2018-02-12T19:50:22.369Z,63.43
2018-02-12T19:52:52.862Z,63.55
2018-02-12T19:55:23.935Z,63.91
2018-02-12T19:57:54.764Z,64.46
2018-02-12T20:00:26.233Z,64.36
2018-02-12T20:02:56.999Z,64.21
2018-02-12T20:05:27.727Z,64.02
2018-02-12T20:07:59.007Z,64.02
2018-02-12T20:10:30.547Z,63.98
2018-02-12T20:13:01.043Z,64.15
2018-02-12T20:15:31.858Z,63.96
2018-02-12T20:18:02.391Z,64.28
2018-02-12T20:20:33.918Z,65.08
2018-02-12T20:23:04.651Z,64.66
2018-02-12T20:25:35.130Z,64.69
2018-02-12T20:28:05.783Z,64.46
2018-02-12T20:30:36.742Z,64.96
2018-02-12T20:33:08.024Z,64.66
2018-02-12T20:35:38.552Z,65.21
2018-02-12T20:38:09.205Z,65.60
2018-02-12T20:40:40.207Z,65.00
2018-02-12T20:43:11.479Z,65.17
2018-02-12T20:45:42.544Z,65.07
2018-02-12T20:48:13.383Z,65.22
2018-02-12T20:50:44.540Z,65.56
2018-02-12T20:53:15.411Z,65.20
2018-02-12T20:55:46.389Z,65.21
2018-02-12T20:58:17.278Z,64.99
2018-02-12T21:00:48.202Z,64.99
2018-02-12T21:03:19.450Z,64.82
2018-02-12T21:05:51.042Z,65.02
2018-02-12T21:08:21.504Z,65.40
2018-02-12T21:10:52.091Z,65.70
2018-02-12T21:13:22.795Z,66.14
2018-02-12T21:15:53.591Z,66.07
2018-02-12T21:18:24.457Z,66.03
2018-02-12T21:20:55.015Z,66.45
2018-02-12T21:23:25.513Z,66.46
2018-02-12T21:25:56.461Z,66.66
2018-02-12T21:28:27.284Z,66.77
2018-02-12T21:30:57.557Z,66.55
2018-02-12T21:33:27.846Z,66.71
2018-02-12T21:35:58.515Z,66.60
2018-02-12T21:38:29.024Z,67.12
2018-02-12T21:40:59.559Z,66.94
2018-02-12T21:43:30.992Z,66.32
2018-02-12T21:46:01.519Z,66.41
2018-02-12T21:48:32.359Z,67.16
2018-02-12T21:51:03.855Z,66.96
2018-02-12T21:53:34.139Z,67.34
2018-02-12T21:56:04.494Z,67.73
2018-02-12T21:58:35.340Z,67.50
2018-02-12T22:01:06.313Z,67.65
2018-02-12T22:06:28.560Z,67.96
2018-02-12T22:08:57.356Z,67.76
2018-02-12T22:11:26.139Z,67.97
2018-02-12T22:13:55.331Z,67.95
2018-02-12T22:16:24.904Z,67.97
2018-02-12T22:18:54.003Z,67.85
2018-02-12T22:21:23.140Z,67.73
2018-02-12T22:23:52.559Z,67.59
2018-02-12T22:26:21.763Z,67.78
2018-02-12T22:28:50.925Z,67.99
2018-02-12T22:31:19.991Z,68.04
2018-02-12T22:33:49.078Z,68.30
2018-02-12T22:36:18.855Z,68.16
2018-02-12T22:38:50.044Z,68.34
2018-02-12T22:41:20.599Z,68.61
2018-02-12T22:43:53.845Z,68.83
2018-02-12T22:46:24.650Z,69.58
2018-02-12T22:48:54.117Z,68.94
2018-02-12T22:51:24.659Z,69.39
2018-02-12T22:53:55.114Z,69.07
2018-02-12T22:56:25.551Z,68.96
2018-02-12T22:58:57.913Z,69.01
2018-02-12T23:01:28.340Z,69.54
2018-02-12T23:03:58.771Z,69.53
2018-02-12T23:06:30.248Z,69.28
2018-02-12T23:09:00.697Z,69.20
2018-02-12T23:11:31.045Z,69.29
2018-02-12T23:14:01.883Z,69.18
2018-02-12T23:16:32.492Z,69.17
2018-02-12T23:19:02.255Z,69.29
2018-02-12T23:21:32.891Z,69.24
2018-02-12T23:24:03.708Z,69.12
2018-02-12T23:26:35.039Z,69.03
2018-02-12T23:29:05.688Z,69.63
2018-02-12T23:31:37.135Z,69.79
2018-02-12T23:34:09.366Z,69.51
2018-02-12T23:36:40.715Z,69.49
2018-02-12T23:39:11.971Z,69.57
2018-02-12T23:41:41.909Z,69.84
2018-02-12T23:44:12.420Z,69.61
2018-02-12T23:46:43.356Z,69.76
2018-02-12T23:49:14.184Z,69.81
2018-02-12T23:51:45.092Z,69.56
2018-02-12T23:54:26.997Z,69.50
2018-02-12T23:56:56.126Z,69.54
2018-02-12T23:59:25.218Z,69.79
